Talladega, Alabama
Current Conditions -  °F | °C
As of 8:35 AM on Thursday 23 Oct 2014 (Local Time) from KASN Reporting Station
Clear Clear  
Wind Chill: 45°   Ceiling: Unl
Heat Index: 48°   Visibility: 10mi
Dew Point: 44°   Wind: 6mph
Humidity: 87%   Direction: 80°E
Pressure: 30.18"   Gusts: NA
Location:  33.43°N, 86.1°W
Report Text: KASN 231335Z AUTO 08005KT 10SM CLR 09/07 A3018 RMK AO2 T00890068
Loading
Personal Weather Stations






























Interactive Weather Map New forecast layout! Learn more

10-Day Weather Forecast

Advertisements
Track Severe Weather on mobile